Time;durP1;ratioP1;P1;durP2;ratioP2;P2;SDS_P1;SDS_P2;PMS_P1;PMS_P2;Temp;Humidity;BMP_temperature;BMP_pressure;BME280_temperature;BME280_humidity;BME280_pressure;Samples;Min_cycle;Max_cycle;Signal;HPM_P1;HPM_P2
2023/09/06 00:01:25;;;;;;;6.38;5.30;;;;;;;21.24;73.35;102124.72;7396810;19;19945;-72
2023/09/06 00:03:55;;;;;;;10.23;5.32;;;;;;;21.20;73.28;102120.72;7398166;19;19927;-72
2023/09/06 00:06:27;;;;;;;10.77;5.88;;;;;;;21.17;73.46;102121.19;7395949;19;19925;-72
2023/09/06 00:08:56;;;;;;;7.90;5.90;;;;;;;21.13;73.74;102128.16;7396606;19;19932;-71
2023/09/06 00:11:25;;;;;;;7.18;5.13;;;;;;;21.03;73.59;102127.72;7398617;19;19914;-72
2023/09/06 00:13:55;;;;;;;8.90;6.53;;;;;;;20.94;73.99;102120.78;7397853;19;19922;-71
2023/09/06 00:16:24;;;;;;;8.85;6.07;;;;;;;20.89;73.78;102118.69;7395425;19;19923;-72
2023/09/06 00:18:52;;;;;;;9.35;6.05;;;;;;;20.83;73.44;102123.16;7396136;19;19923;-71
2023/09/06 00:21:21;;;;;;;7.22;5.70;;;;;;;20.80;73.90;102112.59;7396239;19;19918;-71
2023/09/06 00:23:53;;;;;;;8.75;6.18;;;;;;;20.80;73.66;102118.06;7395147;19;19927;-72
2023/09/06 00:26:21;;;;;;;;;;;;;;;20.47;75.65;102122.78;7396846;19;19925;-71
2023/09/06 00:28:50;;;;;;;7.13;5.65;;;;;;;20.72;74.19;102110.09;7396962;19;20277;-74
2023/09/06 00:31:19;;;;;;;8.75;6.90;;;;;;;20.75;74.10;102112.41;7397320;19;19919;-72
2023/09/06 00:33:47;;;;;;;7.35;6.28;;;;;;;20.75;74.51;102109.66;7394284;19;19922;-71
2023/09/06 00:36:16;;;;;;;10.48;6.82;;;;;;;20.75;74.62;102117.06;7394797;19;20265;-72
2023/09/06 00:38:45;;;;;;;10.23;6.60;;;;;;;20.76;74.74;102108.59;7386808;19;19994;-72
2023/09/06 00:41:16;;;;;;;9.82;6.85;;;;;;;20.79;74.80;102108.19;7397527;19;19932;-72
2023/09/06 00:43:44;;;;;;;10.48;6.60;;;;;;;20.79;74.91;102108.19;7396143;19;20558;-72
2023/09/06 00:46:14;;;;;;;10.00;7.60;;;;;;;20.77;74.94;102109.44;7395852;19;20024;-72
2023/09/06 00:49:06;;;;;;;12.00;7.47;;;;;;;20.73;75.23;102114.53;7396311;19;19961;-72
2023/09/06 00:51:35;;;;;;;12.00;6.85;;;;;;;20.69;75.04;102121.47;7392914;19;19958;-72
2023/09/06 00:54:03;;;;;;;10.13;7.45;;;;;;;20.64;75.23;102121.28;7392290;19;19927;-71
2023/09/06 00:56:35;;;;;;;11.18;7.28;;;;;;;20.60;75.46;102114.53;7393910;19;19931;-72
2023/09/06 00:59:03;;;;;;;8.20;6.85;;;;;;;20.57;74.93;102114.13;7396962;19;19961;-72
2023/09/06 01:01:33;;;;;;;16.63;6.78;;;;;;;20.53;75.37;102113.72;7393563;19;20257;-72
2023/09/06 01:04:02;;;;;;;10.15;6.45;;;;;;;20.52;75.61;102112.03;7396415;19;19911;-71
2023/09/06 01:06:33;;;;;;;11.20;6.63;;;;;;;20.51;75.68;102115.81;7398331;19;19922;-72
2023/09/06 01:09:05;;;;;;;9.70;7.28;;;;;;;20.47;75.72;102117.28;7399797;19;19927;-72
2023/09/06 01:11:56;;;;;;;7.90;6.50;;;;;;;20.46;75.35;102112.03;7399973;19;19926;-71
2023/09/06 01:14:25;;;;;;;10.05;6.40;;;;;;;20.43;75.43;102118.78;7398783;19;19929;-72
2023/09/06 01:16:55;;;;;;;7.88;6.97;;;;;;;20.40;75.66;102116.47;7400682;19;19930;-72
2023/09/06 01:19:30;;;;;;;10.88;6.80;;;;;;;20.32;75.32;102114.75;7400905;19;19907;-72
2023/09/06 01:22:09;;;;;;;8.40;6.60;;;;;;;20.23;75.84;102107.81;7399049;19;19930;-72
2023/09/06 01:24:41;;;;;;;9.57;6.80;;;;;;;20.24;75.40;102108.63;7398327;19;19923;-72
2023/09/06 01:27:12;;;;;;;9.32;6.78;;;;;;;20.21;75.75;102109.91;7398472;19;19954;-73
2023/09/06 01:29:41;;;;;;;7.75;6.45;;;;;;;20.14;75.67;102113.69;7399480;19;19926;-72
2023/09/06 01:32:09;;;;;;;9.30;6.63;;;;;;;20.08;75.92;102109.06;7400289;19;19926;-71
2023/09/06 01:34:38;;;;;;;8.90;6.60;;;;;;;20.04;76.55;102110.53;7399553;19;19959;-71
2023/09/06 01:37:07;;;;;;;8.20;6.35;;;;;;;20.04;76.41;102108.63;7397995;19;19922;-71
2023/09/06 01:39:36;;;;;;;11.10;6.10;;;;;;;20.07;77.06;102107.34;7399491;19;19922;-71
2023/09/06 01:42:07;;;;;;;6.00;5.00;;;;;;;20.10;76.62;102107.81;7398618;19;19926;-72
2023/09/06 01:44:35;;;;;;;8.43;5.82;;;;;;;20.13;76.75;102110.13;7400589;19;19955;-71
2023/09/06 01:47:06;;;;;;;8.98;6.25;;;;;;;20.10;77.32;102113.28;7398781;19;19922;-72
2023/09/06 01:49:36;;;;;;;9.07;6.85;;;;;;;20.05;76.97;102110.31;7397390;19;20470;-71
2023/09/06 01:52:05;;;;;;;7.88;6.63;;;;;;;20.02;76.88;102109.91;7400208;19;19927;-71
2023/09/06 01:54:34;;;;;;;7.70;5.80;;;;;;;20.01;77.23;102105.47;7399986;19;20340;-72
2023/09/06 01:57:02;;;;;;;6.93;5.65;;;;;;;20.00;77.13;102114.72;7400630;19;19958;-71
2023/09/06 01:59:53;;;;;;;8.30;5.55;;;;;;;20.02;76.80;102118.13;7399289;19;19960;-73
2023/09/06 02:02:22;;;;;;;7.68;5.65;;;;;;;19.98;77.03;102114.09;7394272;19;19922;-71
2023/09/06 02:05:11;;;;;;;9.55;5.85;;;;;;;19.90;76.94;102113.25;7396047;19;20344;-71
2023/09/06 02:07:39;;;;;;;7.88;6.20;;;;;;;19.86;76.71;102122.91;7396994;19;19939;-71
2023/09/06 02:10:10;;;;;;;9.25;6.78;;;;;;;19.82;77.22;102118.91;7400067;19;19919;-71
2023/09/06 02:12:38;;;;;;;8.90;6.40;;;;;;;19.72;77.36;102125.81;7399764;19;19930;-71
2023/09/06 02:15:13;;;;;;;8.52;5.95;;;;;;;19.65;77.39;102120.34;7401843;19;19942;-71
2023/09/06 02:17:44;;;;;;;10.85;5.97;;;;;;;19.63;76.91;102121.63;7396926;19;19914;-72
2023/09/06 02:20:17;;;;;;;8.60;5.60;;;;;;;19.58;77.14;102116.75;7399260;19;19949;-71
2023/09/06 02:22:46;;;;;;;7.68;5.60;;;;;;;19.55;76.98;102117.16;7399223;19;19947;-71
2023/09/06 02:25:36;;;;;;;8.68;6.93;;;;;;;19.50;77.19;102118.84;7394965;19;20324;-72
2023/09/06 02:28:07;;;;;;;7.78;5.65;;;;;;;19.46;77.72;102115.66;7399327;19;19926;-71
2023/09/06 02:30:39;;;;;;;10.77;5.57;;;;;;;19.43;77.38;102116.91;7398706;19;19923;-72
2023/09/06 02:33:08;;;;;;;;;;;;;;;19.11;78.87;102117.59;7399505;19;20359;-71
2023/09/06 02:35:40;;;;;;;10.13;5.53;;;;;;;19.30;77.38;102122.28;7399271;19;20332;-72
2023/09/06 02:38:09;;;;;;;6.68;5.47;;;;;;;19.28;77.46;102115.38;7393145;19;19930;-72
2023/09/06 02:40:37;;;;;;;8.35;5.85;;;;;;;19.26;77.69;102125.63;7399875;19;19919;-72
2023/09/06 02:43:06;;;;;;;8.23;6.07;;;;;;;19.23;77.74;102126.91;7400388;19;19934;-73
2023/09/06 02:45:39;;;;;;;6.70;5.15;;;;;;;19.22;78.17;102124.38;7399184;19;20490;-71
2023/09/06 02:48:12;;;;;;;8.13;5.30;;;;;;;19.17;78.18;102133.16;7397517;19;19939;-71
2023/09/06 02:50:44;;;;;;;8.43;5.47;;;;;;;19.13;78.41;102137.34;7397769;19;19922;-71
2023/09/06 02:53:19;;;;;;;9.10;5.38;;;;;;;19.13;78.83;102142.81;7398529;19;19930;-72
2023/09/06 02:55:48;;;;;;;6.15;5.20;;;;;;;19.13;78.21;102137.34;7398815;19;19915;-72
2023/09/06 02:58:18;;;;;;;7.18;5.30;;;;;;;19.14;78.50;102138.19;7397683;19;19922;-72
2023/09/06 03:01:19;;;;;;;6.88;5.18;;;;;;;19.14;78.74;102143.66;7397151;19;20300;-71
2023/09/06 03:03:51;;;;;;;7.80;5.38;;;;;;;19.14;78.09;102138.19;7398152;19;20352;-72
2023/09/06 03:06:32;;;;;;;5.55;4.65;;;;;;;19.10;78.70;102143.22;7397053;19;19978;-71
2023/09/06 03:09:06;;;;;;;8.00;5.57;;;;;;;19.08;78.22;102137.09;7394572;19;19950;-72
2023/09/06 03:11:34;;;;;;;8.55;5.68;;;;;;;19.04;78.37;102138.56;7398525;19;20408;-71
2023/09/06 03:14:03;;;;;;;8.90;6.03;;;;;;;19.01;78.74;102139.81;7398945;19;19915;-71
2023/09/06 03:16:38;;;;;;;5.90;5.22;;;;;;;19.00;78.62;102145.47;7393803;19;19929;-72
2023/09/06 03:19:10;;;;;;;7.28;5.80;;;;;;;18.98;78.46;102139.38;7396076;19;19931;-72
2023/09/06 03:21:39;;;;;;;7.35;5.72;;;;;;;18.96;78.99;102139.56;7396511;19;19911;-72
2023/09/06 03:24:12;;;;;;;6.90;5.45;;;;;;;18.95;78.99;102137.88;7398536;19;19946;-71
2023/09/06 03:26:43;;;;;;;7.18;5.28;;;;;;;18.97;78.86;102138.53;7399058;19;19926;-71
2023/09/06 03:29:11;;;;;;;;;;;;;;;18.71;80.62;102146.56;7398131;19;19946;-72
2023/09/06 03:31:43;;;;;;;7.40;4.40;;;;;;;18.92;78.96;102141.03;7397381;19;19919;-71
2023/09/06 03:34:14;;;;;;;7.22;5.35;;;;;;;18.95;78.99;102148.81;7398018;19;20387;-72
2023/09/06 03:36:45;;;;;;;;;;;;;;;18.70;80.51;102142.13;7391661;19;19918;-72
2023/09/06 03:39:15;;;;;;;7.13;5.38;;;;;;;18.90;79.25;102145.81;7393128;19;19942;-72
2023/09/06 03:41:46;;;;;;;6.45;5.05;;;;;;;18.90;79.28;102148.56;7398072;19;19946;-71
2023/09/06 03:44:34;;;;;;;5.68;4.72;;;;;;;18.85;78.94;102144.75;7395346;19;19945;-72
2023/09/06 03:47:13;;;;;;;6.80;5.47;;;;;;;18.83;79.23;102147.69;7397164;19;19923;-71
2023/09/06 03:49:43;;;;;;;6.88;4.70;;;;;;;18.79;79.59;102153.75;7398051;19;19985;-72
2023/09/06 03:52:16;;;;;;;6.40;4.93;;;;;;;18.76;79.57;102155.00;7396973;19;20292;-72
2023/09/06 03:54:45;;;;;;;7.50;5.47;;;;;;;18.73;79.22;102158.09;7394832;19;19926;-72
2023/09/06 03:57:14;;;;;;;8.77;5.00;;;;;;;18.71;79.33;102162.94;7392804;19;19926;-71
2023/09/06 03:59:44;;;;;;;6.05;4.30;;;;;;;18.68;79.84;102157.84;7394808;19;20192;-71
2023/09/06 04:02:15;;;;;;;7.05;4.97;;;;;;;18.65;80.04;102155.53;7394433;19;19939;-72
2023/09/06 04:04:44;;;;;;;6.78;4.63;;;;;;;18.62;79.81;102158.66;7397666;19;19942;-72
2023/09/06 04:07:13;;;;;;;8.13;5.50;;;;;;;18.60;79.85;102152.53;7395401;19;19922;-71
2023/09/06 04:10:02;;;;;;;6.68;5.25;;;;;;;18.56;80.13;102159.44;7394069;19;20248;-71
2023/09/06 04:12:31;;;;;;;6.32;4.97;;;;;;;18.56;80.48;102151.25;7397579;19;19926;-71
2023/09/06 04:15:00;;;;;;;6.28;4.70;;;;;;;18.56;79.76;102157.56;7397676;19;19938;-71
2023/09/06 04:17:31;;;;;;;6.30;4.40;;;;;;;18.57;79.71;102152.97;7394857;19;19926;-71
2023/09/06 04:19:59;;;;;;;6.25;5.00;;;;;;;18.56;80.14;102152.09;7395293;19;20356;-71
2023/09/06 04:22:49;;;;;;;7.65;4.40;;;;;;;18.55;80.08;102155.88;7393974;19;19974;-71
2023/09/06 04:25:22;;;;;;;6.63;4.95;;;;;;;18.55;79.95;102150.41;7395592;19;19974;-71
2023/09/06 04:27:54;;;;;;;6.03;4.25;;;;;;;18.57;79.88;102155.69;7396809;19;21900;-71
2023/09/06 04:30:24;;;;;;;6.50;5.05;;;;;;;18.58;80.10;102154.66;7396834;19;20002;-72
2023/09/06 04:32:57;;;;;;;5.13;4.20;;;;;;;18.59;79.72;102151.69;7393182;19;19936;-72
2023/09/06 04:35:28;;;;;;;5.25;4.20;;;;;;;18.61;79.44;102143.31;7396859;19;20360;-73
2023/09/06 04:38:19;;;;;;;6.75;4.40;;;;;;;18.60;79.87;102147.09;7388473;19;20862;-72
2023/09/06 04:40:49;;;;;;;6.50;4.18;;;;;;;18.59;79.72;102146.25;7394586;19;20431;-72
2023/09/06 04:43:19;;;;;;;6.63;4.13;;;;;;;18.58;79.71;102151.91;7393923;19;19930;-72
2023/09/06 04:45:48;;;;;;;6.15;4.22;;;;;;;18.55;79.92;102152.31;7395394;19;20499;-72
2023/09/06 04:48:23;;;;;;;6.40;4.20;;;;;;;18.53;79.74;102154.41;7397499;19;19954;-73
2023/09/06 04:50:52;;;;;;;6.70;4.60;;;;;;;18.49;79.59;102150.34;7392124;19;20022;-72
2023/09/06 04:53:21;;;;;;;6.47;4.43;;;;;;;18.46;79.72;102146.13;7390511;19;20229;-72
2023/09/06 04:55:52;;;;;;;6.50;4.75;;;;;;;18.38;79.71;102154.44;7396605;19;20351;-72
2023/09/06 04:58:21;;;;;;;6.20;4.35;;;;;;;18.33;79.42;102161.56;7394545;19;19930;-72
2023/09/06 05:00:50;;;;;;;7.30;4.25;;;;;;;18.30;79.63;102156.47;7396160;19;19958;-73
2023/09/06 05:03:22;;;;;;;5.13;4.13;;;;;;;18.24;79.48;102155.38;7395526;19;19914;-72
2023/09/06 05:05:51;;;;;;;7.05;4.35;;;;;;;18.17;79.36;102159.91;7390906;19;19927;-72
2023/09/06 05:08:39;;;;;;;5.45;4.15;;;;;;;18.08;79.45;102152.91;7387663;19;19961;-72
2023/09/06 05:11:28;;;;;;;4.28;3.78;;;;;;;18.03;79.52;102155.41;7393893;19;19932;-73
2023/09/06 05:14:16;;;;;;;5.47;4.43;;;;;;;17.98;79.81;102152.41;7389931;19;19922;-72
2023/09/06 05:16:45;;;;;;;5.05;4.38;;;;;;;17.94;79.93;102154.69;7395153;19;19922;-73
2023/09/06 05:19:16;;;;;;;5.80;4.88;;;;;;;17.93;80.05;102155.72;7388242;19;19934;-72
2023/09/06 05:21:45;;;;;;;7.10;4.22;;;;;;;17.92;80.50;102164.06;7395002;19;19923;-72
2023/09/06 05:24:13;;;;;;;6.32;4.05;;;;;;;17.93;80.06;102163.91;7394649;19;19918;-73
2023/09/06 05:26:42;;;;;;;5.03;4.18;;;;;;;17.95;80.29;102161.81;7390458;19;19926;-73
2023/09/06 05:29:11;;;;;;;4.15;3.50;;;;;;;17.96;80.21;102159.91;7387550;19;20392;-73
2023/09/06 05:31:39;;;;;;;5.40;4.15;;;;;;;17.97;80.31;102167.91;7394548;19;19922;-73
2023/09/06 05:34:08;;;;;;;8.15;4.72;;;;;;;17.99;80.29;102176.72;7393842;19;19922;-72
2023/09/06 05:36:59;;;;;;;6.63;4.43;;;;;;;18.03;80.56;102171.75;7393741;19;19978;-72
2023/09/06 05:39:28;;;;;;;7.00;3.70;;;;;;;18.07;80.05;102175.78;7393245;19;19915;-72
2023/09/06 05:41:56;;;;;;;5.18;3.88;;;;;;;18.10;79.96;102183.56;7393361;19;19919;-72
2023/09/06 05:44:25;;;;;;;6.75;4.32;;;;;;;18.11;80.40;102180.66;7393874;19;19990;-72
2023/09/06 05:46:54;;;;;;;8.48;3.88;;;;;;;18.15;80.13;102183.84;7394053;19;19938;-72
2023/09/06 05:49:22;;;;;;;7.82;4.57;;;;;;;18.14;80.79;102177.53;7394955;19;19918;-72
2023/09/06 05:51:51;;;;;;;6.75;4.20;;;;;;;18.17;80.40;102178.16;7394756;19;19926;-70
2023/09/06 05:54:23;;;;;;;6.18;4.00;;;;;;;18.19;80.73;102179.69;7401434;19;20275;-72
2023/09/06 05:56:51;;;;;;;6.05;5.47;;;;;;;18.21;80.41;102184.94;7396529;19;20305;-71
2023/09/06 05:59:21;;;;;;;5.85;3.63;;;;;;;18.23;80.19;102186.44;7395876;19;19931;-71
2023/09/06 06:02:10;;;;;;;7.60;3.75;;;;;;;18.28;80.43;102186.69;7394377;19;20215;-71
2023/09/06 06:04:39;;;;;;;6.53;3.90;;;;;;;18.33;80.16;102188.84;7397900;19;19981;-70
2023/09/06 06:07:08;;;;;;;5.38;4.20;;;;;;;18.35;80.27;102186.75;7396744;19;19922;-71
2023/09/06 06:09:39;;;;;;;6.25;3.97;;;;;;;18.39;80.24;102177.13;7381627;19;19926;-71
2023/09/06 06:12:10;;;;;;;7.43;3.85;;;;;;;18.47;80.21;102182.44;7383685;19;19945;-70
2023/09/06 06:14:39;;;;;;;7.95;4.20;;;;;;;18.52;80.17;102189.03;7385140;19;19914;-71
2023/09/06 06:17:28;;;;;;;5.88;4.13;;;;;;;18.54;80.23;102189.69;7390841;19;19925;-70
2023/09/06 06:19:57;;;;;;;4.28;3.55;;;;;;;18.62;80.08;102204.22;7399809;19;19922;-70
2023/09/06 06:22:46;;;;;;;6.50;4.28;;;;;;;18.67;79.99;102201.75;7396829;19;19914;-70
2023/09/06 06:25:18;;;;;;;6.57;3.83;;;;;;;18.72;80.08;102208.31;7391149;19;19926;-71
2023/09/06 06:28:07;;;;;;;5.55;3.78;;;;;;;18.78;79.72;102212.97;7395298;19;19919;-71
2023/09/06 06:30:56;;;;;;;6.43;3.55;;;;;;;18.82;79.60;102206.06;7394863;19;19933;-71
2023/09/06 06:33:25;;;;;;;5.60;4.43;;;;;;;18.88;80.11;102205.28;7394651;19;19928;-72
2023/09/06 06:35:54;;;;;;;5.80;4.10;;;;;;;18.96;79.47;102209.75;7392758;19;20389;-71
2023/09/06 06:38:23;;;;;;;6.53;4.18;;;;;;;19.01;79.85;102213.56;7393722;19;19918;-71
2023/09/06 06:40:54;;;;;;;9.80;4.60;;;;;;;19.08;79.70;102220.94;7393098;19;19919;-71
2023/09/06 06:43:43;;;;;;;8.02;4.03;;;;;;;19.11;79.79;102215.09;7395828;19;20060;-71
2023/09/06 06:46:25;;;;;;;6.30;4.13;;;;;;;19.09;80.46;102211.72;7393152;19;19914;-71
2023/09/06 06:48:55;;;;;;;9.40;5.55;;;;;;;19.18;80.43;102213.25;7398917;19;19926;-71
2023/09/06 06:51:25;;;;;;;7.93;4.45;;;;;;;19.24;80.11;102210.53;7398048;19;20292;-71
2023/09/06 06:53:54;;;;;;;6.82;4.28;;;;;;;19.32;80.00;102206.81;7392780;19;19925;-71
2023/09/06 06:56:27;;;;;;;6.65;4.65;;;;;;;19.40;79.98;102212.09;7389924;19;19966;-71
2023/09/06 06:58:56;;;;;;;5.82;4.07;;;;;;;19.47;79.70;102216.59;7395325;19;20552;-70
2023/09/06 07:01:27;;;;;;;4.55;4.00;;;;;;;19.56;79.31;102214.53;7392871;19;19926;-71
2023/09/06 07:03:56;;;;;;;6.85;4.55;;;;;;;19.66;78.92;102214.16;7392467;19;19932;-71
2023/09/06 07:06:25;;;;;;;7.32;5.18;;;;;;;19.74;78.48;102216.72;7398298;19;19950;-71
2023/09/06 07:08:55;;;;;;;7.03;4.85;;;;;;;19.80;78.79;102219.44;7389295;19;19973;-70
2023/09/06 07:11:27;;;;;;;5.40;4.22;;;;;;;19.89;78.19;102228.31;7391353;19;19929;-72
2023/09/06 07:13:55;;;;;;;6.75;4.55;;;;;;;19.95;78.35;102232.97;7392471;19;19946;-71
2023/09/06 07:16:24;;;;;;;6.03;4.75;;;;;;;20.03;77.93;102231.94;7399490;19;19939;-71
2023/09/06 07:18:53;;;;;;;5.93;4.22;;;;;;;20.10;78.18;102230.09;7392446;19;19922;-70
2023/09/06 07:21:23;;;;;;;7.45;4.30;;;;;;;20.16;78.15;102229.25;7396028;19;19918;-71
2023/09/06 07:23:51;;;;;;;6.60;4.22;;;;;;;20.21;77.55;102233.06;7388954;19;19922;-71
2023/09/06 07:26:21;;;;;;;7.45;4.60;;;;;;;20.28;77.57;102230.31;7399553;19;19949;-71
2023/09/06 07:28:52;;;;;;;9.52;4.40;;;;;;;20.34;78.49;102233.09;7397123;19;20419;-71
2023/09/06 07:31:21;;;;;;;9.25;5.22;;;;;;;20.42;78.25;102233.94;7392341;19;19940;-71
2023/09/06 07:34:10;;;;;;;5.80;4.43;;;;;;;20.48;78.24;102235.88;7396567;19;19945;-71
2023/09/06 07:36:39;;;;;;;6.65;5.05;;;;;;;20.54;77.31;102237.75;7398837;19;19937;-71
2023/09/06 07:39:08;;;;;;;6.78;4.53;;;;;;;20.60;77.03;102243.25;7392676;19;19957;-71
2023/09/06 07:41:37;;;;;;;7.60;4.13;;;;;;;20.67;77.20;102240.50;7395859;19;19990;-70
2023/09/06 07:44:32;;;;;;;7.63;4.20;;;;;;;20.73;77.06;102240.50;7396943;19;19962;-71
2023/09/06 07:47:01;;;;;;;6.55;4.03;;;;;;;20.82;76.78;102243.88;7388730;19;19926;-70
2023/09/06 07:49:31;;;;;;;5.65;3.70;;;;;;;20.89;76.41;102244.72;7397876;19;19985;-71
2023/09/06 07:52:04;;;;;;;5.57;3.60;;;;;;;20.96;76.44;102244.72;7394763;19;19945;-71
2023/09/06 07:54:54;;;;;;;5.40;3.67;;;;;;;21.03;76.40;102251.88;7394333;19;19944;-71
2023/09/06 07:57:23;;;;;;;4.88;3.38;;;;;;;21.12;76.06;102258.84;7396004;19;19931;-71
2023/09/06 07:59:55;;;;;;;5.90;3.95;;;;;;;21.21;76.06;102254.00;7388847;19;19923;-71
2023/09/06 08:02:23;;;;;;;7.40;3.55;;;;;;;21.29;76.62;102253.75;7387923;19;19942;-72
2023/09/06 08:04:53;;;;;;;4.93;3.47;;;;;;;21.38;76.56;102254.38;7391725;19;19918;-71
2023/09/06 08:07:22;;;;;;;6.03;3.50;;;;;;;21.47;76.69;102264.06;7396515;19;20279;-70
2023/09/06 08:09:51;;;;;;;4.47;3.30;;;;;;;21.55;76.06;102261.91;7390391;19;19925;-71
2023/09/06 08:12:19;;;;;;;4.45;2.97;;;;;;;21.66;75.90;102254.91;7388068;19;19922;-71
2023/09/06 08:14:48;;;;;;;5.53;3.47;;;;;;;21.77;76.02;102250.66;7388671;19;19950;-71
2023/09/06 08:17:19;;;;;;;4.35;3.22;;;;;;;21.85;76.03;102256.75;7394712;19;19939;-71
2023/09/06 08:19:48;;;;;;;4.43;2.80;;;;;;;21.93;75.53;102256.50;7394119;19;19927;-71
2023/09/06 08:22:18;;;;;;;4.07;2.50;;;;;;;22.04;74.88;102264.06;7390964;19;19922;-71
2023/09/06 08:25:08;;;;;;;3.55;2.63;;;;;;;22.13;74.51;102267.41;7395420;19;19926;-71
2023/09/06 08:27:36;;;;;;;5.00;2.65;;;;;;;22.22;74.23;102263.31;7398170;19;19925;-71
2023/09/06 08:30:06;;;;;;;4.40;3.08;;;;;;;22.32;74.11;102263.69;7393423;19;19925;-71
2023/09/06 08:32:57;;;;;;;5.35;2.30;;;;;;;22.42;73.20;102264.06;7392756;19;20005;-71
2023/09/06 08:35:27;;;;;;;3.47;2.10;;;;;;;22.53;72.06;102257.84;7391182;19;19926;-73
2023/09/06 08:37:56;;;;;;;3.40;2.58;;;;;;;22.63;71.68;102258.19;7391132;19;20348;-71
2023/09/06 08:40:25;;;;;;;2.30;2.10;;;;;;;22.74;71.82;102262.16;7389419;19;20011;-72
2023/09/06 08:42:56;;;;;;;2.35;1.80;;;;;;;22.85;70.99;102261.44;7395675;19;19923;-72
2023/09/06 08:45:25;;;;;;;4.07;2.22;;;;;;;22.96;70.98;102262.59;7396056;19;19918;-71
2023/09/06 08:47:57;;;;;;;2.83;2.20;;;;;;;23.08;71.04;102257.22;7392747;19;19926;-71
2023/09/06 08:50:26;;;;;;;2.13;1.30;;;;;;;23.21;69.40;102263.41;7386369;19;19935;-71
2023/09/06 08:52:55;;;;;;;3.20;1.40;;;;;;;23.32;68.12;102265.41;7393331;19;19934;-71
2023/09/06 08:55:25;;;;;;;2.58;1.50;;;;;;;23.43;66.29;102261.06;7392359;19;19927;-71
2023/09/06 08:57:56;;;;;;;2.30;1.65;;;;;;;23.55;65.82;102273.03;7395896;19;19929;-72
2023/09/06 09:00:25;;;;;;;1.80;1.30;;;;;;;23.67;65.60;102273.09;7389939;19;19922;-72
2023/09/06 09:02:53;;;;;;;3.58;1.90;;;;;;;23.75;65.56;102275.53;7395437;19;19918;-72
2023/09/06 09:05:25;;;;;;;3.35;1.60;;;;;;;23.86;64.66;102266.50;7390827;19;19919;-72
2023/09/06 09:08:00;;;;;;;2.75;1.60;;;;;;;23.94;64.96;102264.31;7392318;19;19933;-71
2023/09/06 09:10:31;;;;;;;2.75;1.40;;;;;;;24.04;63.50;102269.22;7391581;19;19918;-72
2023/09/06 09:13:01;;;;;;;2.25;1.73;;;;;;;24.14;63.16;102269.53;7396927;19;19918;-71
2023/09/06 09:15:32;;;;;;;2.00;1.42;;;;;;;24.27;62.88;102268.53;7390428;19;19925;-72
2023/09/06 09:18:22;;;;;;;3.08;1.60;;;;;;;24.38;62.95;102268.56;7393839;19;19921;-71
2023/09/06 09:20:54;;;;;;;2.38;1.48;;;;;;;24.47;61.56;102263.56;7395283;19;20323;-71
2023/09/06 09:23:22;;;;;;;3.65;1.60;;;;;;;24.57;61.97;102263.84;7391946;19;19923;-72
2023/09/06 09:26:11;;;;;;;2.25;1.45;;;;;;;24.66;62.40;102258.81;7393297;19;19981;-72
2023/09/06 09:28:40;;;;;;;2.65;1.50;;;;;;;24.75;61.84;102262.91;7400701;19;19915;-72
2023/09/06 09:31:09;;;;;;;5.30;1.73;;;;;;;24.84;61.93;102258.75;7401672;19;20285;-71
2023/09/06 09:33:38;;;;;;;4.25;1.90;;;;;;;24.94;62.12;102264.50;7398536;19;19919;-71
2023/09/06 09:36:09;;;;;;;2.10;1.55;;;;;;;25.03;61.09;102263.09;7400694;19;19918;-71
2023/09/06 09:38:43;;;;;;;2.58;1.73;;;;;;;25.14;61.24;102261.41;7397607;19;19926;-71
2023/09/06 09:41:13;;;;;;;3.83;1.58;;;;;;;25.24;61.46;102264.44;7401255;19;20178;-71
2023/09/06 09:43:41;;;;;;;1.60;1.30;;;;;;;25.33;61.73;102251.91;7398166;19;19929;-72
2023/09/06 09:46:11;;;;;;;3.22;1.73;;;;;;;25.45;61.11;102251.94;7400766;19;20525;-71
2023/09/06 09:48:40;;;;;;;2.00;1.50;;;;;;;25.56;60.44;102253.84;7397516;19;19927;-72
2023/09/06 09:51:17;;;;;;;3.78;1.90;;;;;;;25.64;59.00;102258.97;7398772;19;19930;-72
2023/09/06 09:53:47;;;;;;;2.15;1.70;;;;;;;25.73;59.39;102263.03;7395528;19;20639;-72
2023/09/06 09:56:17;;;;;;;2.90;1.80;;;;;;;25.83;59.35;102249.47;7389004;19;19919;-71
2023/09/06 09:59:08;;;;;;;3.47;1.80;;;;;;;25.93;58.94;102249.66;7379854;19;19947;-71
2023/09/06 10:01:36;;;;;;;2.95;1.77;;;;;;;26.03;58.12;102255.38;7396859;19;19922;-71
2023/09/06 10:04:09;;;;;;;2.97;1.90;;;;;;;26.12;57.63;102253.91;7395979;19;19965;-71
2023/09/06 10:07:02;;;;;;;5.40;2.30;;;;;;;26.22;57.23;102250.53;7395527;19;20059;-72
2023/09/06 10:09:32;;;;;;;3.88;1.58;;;;;;;26.31;57.44;102256.50;7394865;19;19918;-72
2023/09/06 10:12:03;;;;;;;4.00;1.50;;;;;;;26.42;56.89;102250.06;7397384;19;20367;-71
2023/09/06 10:14:34;;;;;;;4.85;1.65;;;;;;;26.50;56.80;102241.34;7401529;19;19942;-71
2023/09/06 10:17:04;;;;;;;3.45;1.63;;;;;;;26.62;56.28;102242.97;7398861;19;20494;-71
2023/09/06 10:19:33;;;;;;;6.20;1.40;;;;;;;26.75;55.90;102239.03;7397982;19;19978;-72
2023/09/06 10:22:08;;;;;;;3.80;1.63;;;;;;;26.85;55.04;102239.22;7397653;19;19926;-72
2023/09/06 10:24:38;;;;;;;2.95;1.50;;;;;;;26.94;54.96;102240.47;7393975;19;19918;-71
2023/09/06 10:27:14;;;;;;;4.75;1.55;;;;;;;27.04;56.13;102237.88;7400220;19;19922;-72
2023/09/06 10:29:55;;;;;;;2.60;1.45;;;;;;;27.17;54.06;102238.63;7400124;19;21443;-72
2023/09/06 10:32:24;;;;;;;2.05;1.50;;;;;;;27.27;53.42;102242.34;7393689;19;19963;-71
2023/09/06 10:35:24;;;;;;;2.17;1.40;;;;;;;27.32;52.07;102236.03;7393832;19;20364;-71
2023/09/06 10:38:10;;;;;;;2.58;1.48;;;;;;;27.43;53.30;102229.56;7392231;19;19923;-71
2023/09/06 10:41:10;;;;;;;3.10;1.40;;;;;;;27.54;52.81;102231.41;7399409;19;19998;-71
2023/09/06 10:43:53;;;;;;;1.88;1.55;;;;;;;27.68;54.06;102235.47;7282288;19;19930;-71
2023/09/06 10:46:29;;;;;;;1.92;1.35;;;;;;;27.82;52.60;102230.38;7399300;19;19919;-71
2023/09/06 10:49:22;;;;;;;2.80;1.92;;;;;;;27.97;53.71;102228.59;7398219;19;20271;-71
2023/09/06 10:52:08;;;;;;;2.88;1.55;;;;;;;28.09;53.01;102225.69;7394932;19;19928;-72
2023/09/06 10:54:41;;;;;;;1.98;1.58;;;;;;;28.26;52.38;102226.44;7399436;19;19914;-72
2023/09/06 10:57:10;;;;;;;3.42;1.70;;;;;;;28.33;51.13;102224.31;7398530;19;19939;-72
2023/09/06 10:59:41;;;;;;;3.15;1.48;;;;;;;28.46;52.40;102227.75;7399445;19;19930;-71
2023/09/06 11:02:17;;;;;;;2.30;1.48;;;;;;;28.59;52.01;102230.94;7393216;19;19919;-71
2023/09/06 11:04:46;;;;;;;2.38;1.58;;;;;;;28.68;51.65;102221.03;7395429;19;19937;-71
2023/09/06 11:07:43;;;;;;;;;;;;;;;28.63;47.26;102222.91;7398719;19;19915;-72
2023/09/06 11:10:15;;;;;;;2.45;1.67;;;;;;;28.79;50.76;102222.78;7397794;19;19964;-72
2023/09/06 11:12:43;;;;;;;2.47;1.60;;;;;;;28.92;50.67;102226.19;7398556;19;19918;-71
2023/09/06 11:15:13;;;;;;;2.47;1.33;;;;;;;29.07;51.08;102220.78;7397533;19;20293;-72
2023/09/06 11:17:41;;;;;;;3.40;1.45;;;;;;;29.21;50.91;102216.41;7397689;19;19918;-72
2023/09/06 11:20:12;;;;;;;2.85;1.50;;;;;;;29.29;50.00;102216.78;7395875;19;19918;-72
2023/09/06 11:22:50;;;;;;;2.42;1.50;;;;;;;29.42;48.68;102209.91;7396513;19;19926;-71
2023/09/06 11:25:22;;;;;;;;;;;;;;;29.47;49.53;102207.13;7397873;19;19918;-72
2023/09/06 11:27:55;;;;;;;4.40;1.25;;;;;;;29.63;48.76;102208.03;7389083;19;19923;-72
2023/09/06 11:30:26;;;;;;;1.92;1.50;;;;;;;29.72;48.46;102215.59;7389382;19;19927;-71
2023/09/06 11:32:56;;;;;;;2.35;1.33;;;;;;;29.79;47.71;102203.34;7397016;19;20001;-72
2023/09/06 11:35:32;;;;;;;1.98;1.20;;;;;;;29.84;47.38;102203.38;7376066;19;20549;-71
2023/09/06 11:38:03;;;;;;;3.47;1.35;;;;;;;30.00;49.35;102205.94;7390099;19;19922;-72
2023/09/06 11:40:55;;;;;;;4.53;1.20;;;;;;;30.17;48.07;102203.75;7388973;19;19927;-71
2023/09/06 11:43:26;;;;;;;3.35;1.60;;;;;;;30.27;46.60;102208.50;7398294;19;19926;-72
2023/09/06 11:46:01;;;;;;;1.58;1.48;;;;;;;30.34;46.72;102202.66;7397779;19;20462;-73
2023/09/06 11:48:30;;;;;;;3.63;1.13;;;;;;;30.43;45.34;102198.22;7388567;19;19930;-72
2023/09/06 11:51:08;;;;;;;1.83;1.70;;;;;;;30.43;44.27;102198.22;7395998;19;20367;-72
2023/09/06 11:53:53;;;;;;;2.90;1.55;;;;;;;30.53;44.79;102195.47;7397286;19;19929;-72